sensor_id;sensor_type;location;lat;lon;timestamp;pressure;altitude;pressure_sealevel;temperature;humidity
49943;BME280;36011;53.362;58.948;2023-03-26T00:01:22;96526.16;;;2.28;71.86
49943;BME280;36011;53.362;58.948;2023-03-26T00:04:26;96526.66;;;2.37;71.46
49943;BME280;36011;53.362;58.948;2023-03-26T00:07:28;96521.78;;;2.52;71.08
49943;BME280;36011;53.362;58.948;2023-03-26T00:10:34;96520.69;;;2.57;70.91
49943;BME280;36011;53.362;58.948;2023-03-26T00:13:39;96516.25;;;2.61;70.24
49943;BME280;36011;53.362;58.948;2023-03-26T00:16:41;96509.34;;;2.38;70.78
49943;BME280;36011;53.362;58.948;2023-03-26T00:19:42;96523.09;;;2.40;71.05
49943;BME280;36011;53.362;58.948;2023-03-26T00:22:54;96534.72;;;2.53;70.94
49943;BME280;36011;53.362;58.948;2023-03-26T00:25:55;96531.56;;;2.45;71.38
49943;BME280;36011;53.362;58.948;2023-03-26T00:29:02;96535.69;;;2.51;70.96
49943;BME280;36011;53.362;58.948;2023-03-26T00:32:04;96524.56;;;2.47;71.56
49943;BME280;36011;53.362;58.948;2023-03-26T00:35:05;96529.75;;;2.47;71.47
49943;BME280;36011;53.362;58.948;2023-03-26T00:38:09;96526.38;;;2.45;71.66
49943;BME280;36011;53.362;58.948;2023-03-26T00:41:14;96522.44;;;2.57;71.71
49943;BME280;36011;53.362;58.948;2023-03-26T00:44:24;96537.31;;;2.53;71.54
49943;BME280;36011;53.362;58.948;2023-03-26T00:47:27;96529.41;;;2.56;71.66
49943;BME280;36011;53.362;58.948;2023-03-26T00:50:28;96535.94;;;2.66;71.76
49943;BME280;36011;53.362;58.948;2023-03-26T00:53:34;96531.63;;;2.65;71.32
49943;BME280;36011;53.362;58.948;2023-03-26T00:56:38;96535.16;;;2.64;71.75
49943;BME280;36011;53.362;58.948;2023-03-26T00:59:42;96531.72;;;2.64;71.55
49943;BME280;36011;53.362;58.948;2023-03-26T01:02:46;96525.56;;;2.66;71.34
49943;BME280;36011;53.362;58.948;2023-03-26T01:05:52;96530.00;;;2.63;71.65
49943;BME280;36011;53.362;58.948;2023-03-26T01:08:58;96539.78;;;2.56;71.85
49943;BME280;36011;53.362;58.948;2023-03-26T01:12:06;96531.06;;;2.57;72.06
49943;BME280;36011;53.362;58.948;2023-03-26T01:15:08;96533.16;;;2.71;71.74
49943;BME280;36011;53.362;58.948;2023-03-26T01:18:24;96540.66;;;2.79;71.86
49943;BME280;36011;53.362;58.948;2023-03-26T01:21:32;96538.09;;;2.99;71.91
49943;BME280;36011;53.362;58.948;2023-03-26T01:24:43;96542.31;;;3.02;71.67
49943;BME280;36011;53.362;58.948;2023-03-26T01:27:48;96549.22;;;3.03;71.76
49943;BME280;36011;53.362;58.948;2023-03-26T01:38:00;96558.41;;;3.11;71.62
49943;BME280;36011;53.362;58.948;2023-03-26T01:41:20;96557.13;;;3.22;71.49
49943;BME280;36011;53.362;58.948;2023-03-26T01:44:40;96563.09;;;3.24;71.42
49943;BME280;36011;53.362;58.948;2023-03-26T01:47:47;96559.72;;;3.22;71.58
49943;BME280;36011;53.362;58.948;2023-03-26T01:50:54;96554.34;;;3.26;71.50
49943;BME280;36011;53.362;58.948;2023-03-26T01:54:05;96560.06;;;3.34;71.48
49943;BME280;36011;53.362;58.948;2023-03-26T02:00:35;96576.97;;;3.45;71.63
49943;BME280;36011;53.362;58.948;2023-03-26T02:04:05;96572.78;;;3.63;71.24
49943;BME280;36011;53.362;58.948;2023-03-26T02:07:17;96578.75;;;3.65;71.04
49943;BME280;36011;53.362;58.948;2023-03-26T02:10:29;96572.50;;;3.89;70.27
49943;BME280;36011;53.362;58.948;2023-03-26T02:13:31;96560.66;;;3.82;70.53
49943;BME280;36011;53.362;58.948;2023-03-26T02:16:34;96567.03;;;3.95;70.52
49943;BME280;36011;53.362;58.948;2023-03-26T02:19:41;96565.25;;;3.96;70.52
49943;BME280;36011;53.362;58.948;2023-03-26T02:22:45;96565.06;;;4.00;70.22
49943;BME280;36011;53.362;58.948;2023-03-26T02:25:50;96566.84;;;4.19;69.87
49943;BME280;36011;53.362;58.948;2023-03-26T02:28:51;96562.44;;;4.21;70.15
49943;BME280;36011;53.362;58.948;2023-03-26T02:31:55;96564.00;;;4.25;69.87
49943;BME280;36011;53.362;58.948;2023-03-26T02:35:01;96568.78;;;4.34;69.37
49943;BME280;36011;53.362;58.948;2023-03-26T02:38:05;96560.22;;;4.51;69.13
49943;BME280;36011;53.362;58.948;2023-03-26T02:41:13;96562.34;;;4.62;68.42
49943;BME280;36011;53.362;58.948;2023-03-26T02:44:19;96564.16;;;4.60;68.67
49943;BME280;36011;53.362;58.948;2023-03-26T02:47:24;96566.53;;;4.83;68.01
49943;BME280;36011;53.362;58.948;2023-03-26T02:50:28;96572.72;;;5.00;67.54
49943;BME280;36011;53.362;58.948;2023-03-26T02:53:37;96561.28;;;5.21;66.69
49943;BME280;36011;53.362;58.948;2023-03-26T02:56:41;96572.41;;;5.25;66.56
49943;BME280;36011;53.362;58.948;2023-03-26T02:59:42;96569.97;;;5.39;66.23
49943;BME280;36011;53.362;58.948;2023-03-26T03:02:46;96576.16;;;5.36;66.11
49943;BME280;36011;53.362;58.948;2023-03-26T03:05:51;96571.88;;;5.53;65.39
49943;BME280;36011;53.362;58.948;2023-03-26T03:08:54;96575.88;;;5.60;65.46
49943;BME280;36011;53.362;58.948;2023-03-26T03:12:00;96577.25;;;5.67;64.93
49943;BME280;36011;53.362;58.948;2023-03-26T03:15:02;96564.22;;;5.50;65.78
49943;BME280;36011;53.362;58.948;2023-03-26T03:18:04;96578.25;;;5.47;66.08
49943;BME280;36011;53.362;58.948;2023-03-26T03:21:06;96572.03;;;5.50;65.97
49943;BME280;36011;53.362;58.948;2023-03-26T03:24:11;96580.94;;;5.46;65.84
49943;BME280;36011;53.362;58.948;2023-03-26T03:27:13;96579.97;;;5.29;66.46
49943;BME280;36011;53.362;58.948;2023-03-26T03:30:17;96578.09;;;5.50;65.60
49943;BME280;36011;53.362;58.948;2023-03-26T03:33:22;96584.63;;;5.42;66.30
49943;BME280;36011;53.362;58.948;2023-03-26T03:36:26;96576.47;;;5.30;66.34
49943;BME280;36011;53.362;58.948;2023-03-26T03:39:27;96577.66;;;5.23;66.68
49943;BME280;36011;53.362;58.948;2023-03-26T03:42:29;96572.56;;;5.03;67.30
49943;BME280;36011;53.362;58.948;2023-03-26T03:45:33;96578.09;;;4.97;67.73
49943;BME280;36011;53.362;58.948;2023-03-26T03:48:35;96582.13;;;5.21;66.98
49943;BME280;36011;53.362;58.948;2023-03-26T03:51:39;96574.75;;;5.29;66.62
49943;BME280;36011;53.362;58.948;2023-03-26T03:54:41;96586.59;;;5.36;66.66
49943;BME280;36011;53.362;58.948;2023-03-26T03:57:42;96578.78;;;5.36;66.71
49943;BME280;36011;53.362;58.948;2023-03-26T04:00:52;96577.56;;;5.44;66.87
49943;BME280;36011;53.362;58.948;2023-03-26T04:03:57;96583.06;;;5.37;67.08
49943;BME280;36011;53.362;58.948;2023-03-26T04:07:01;96585.84;;;5.52;66.73
49943;BME280;36011;53.362;58.948;2023-03-26T04:10:05;96587.56;;;5.70;66.39
49943;BME280;36011;53.362;58.948;2023-03-26T04:13:06;96578.72;;;5.73;66.04
49943;BME280;36011;53.362;58.948;2023-03-26T04:16:13;96586.03;;;5.83;66.14
49943;BME280;36011;53.362;58.948;2023-03-26T04:19:17;96583.16;;;5.88;66.04
49943;BME280;36011;53.362;58.948;2023-03-26T04:22:21;96591.41;;;5.98;66.00
49943;BME280;36011;53.362;58.948;2023-03-26T04:25:28;96586.00;;;6.18;65.02
49943;BME280;36011;53.362;58.948;2023-03-26T04:28:33;96598.88;;;6.39;64.74
49943;BME280;36011;53.362;58.948;2023-03-26T04:31:41;96598.91;;;6.55;64.37
49943;BME280;36011;53.362;58.948;2023-03-26T04:34:45;96598.25;;;6.67;63.23
49943;BME280;36011;53.362;58.948;2023-03-26T04:37:51;96579.00;;;6.52;63.31
49943;BME280;36011;53.362;58.948;2023-03-26T04:40:59;96601.22;;;6.77;62.63
49943;BME280;36011;53.362;58.948;2023-03-26T04:44:03;96599.09;;;6.51;64.02
49943;BME280;36011;53.362;58.948;2023-03-26T04:47:07;96591.25;;;6.67;63.31
49943;BME280;36011;53.362;58.948;2023-03-26T04:50:09;96588.63;;;6.67;63.56
49943;BME280;36011;53.362;58.948;2023-03-26T04:53:15;96608.13;;;6.78;62.92
49943;BME280;36011;53.362;58.948;2023-03-26T04:56:29;96598.28;;;6.83;62.83
49943;BME280;36011;53.362;58.948;2023-03-26T04:59:35;96596.91;;;6.75;63.30
49943;BME280;36011;53.362;58.948;2023-03-26T05:02:39;96605.34;;;6.81;63.22
49943;BME280;36011;53.362;58.948;2023-03-26T05:05:43;96597.09;;;6.88;62.95
49943;BME280;36011;53.362;58.948;2023-03-26T05:08:45;96597.16;;;6.87;62.80
49943;BME280;36011;53.362;58.948;2023-03-26T05:11:49;96615.81;;;6.81;63.26
49943;BME280;36011;53.362;58.948;2023-03-26T05:14:55;96603.84;;;6.92;62.99
49943;BME280;36011;53.362;58.948;2023-03-26T05:17:59;96599.69;;;7.04;61.97
49943;BME280;36011;53.362;58.948;2023-03-26T05:21:03;96606.88;;;7.01;62.24
49943;BME280;36011;53.362;58.948;2023-03-26T05:24:09;96606.38;;;6.94;62.42
49943;BME280;36011;53.362;58.948;2023-03-26T05:27:16;96610.75;;;7.09;62.71
49943;BME280;36011;53.362;58.948;2023-03-26T05:30:22;96614.22;;;7.26;61.98
49943;BME280;36011;53.362;58.948;2023-03-26T05:33:24;96619.88;;;7.34;61.47
49943;BME280;36011;53.362;58.948;2023-03-26T05:36:28;96622.28;;;7.53;60.86
49943;BME280;36011;53.362;58.948;2023-03-26T05:39:38;96618.53;;;10.64;55.77
49943;BME280;36011;53.362;58.948;2023-03-26T05:43:04;96623.25;;;15.62;43.23
49943;BME280;36011;53.362;58.948;2023-03-26T05:46:09;96628.00;;;18.93;35.93
49943;BME280;36011;53.362;58.948;2023-03-26T05:49:12;96632.91;;;21.30;32.43
49943;BME280;36011;53.362;58.948;2023-03-26T05:52:19;96621.25;;;22.85;28.13
49943;BME280;36011;53.362;58.948;2023-03-26T05:55:20;96630.88;;;24.56;26.40
49943;BME280;36011;53.362;58.948;2023-03-26T05:58:44;96626.25;;;25.63;24.76
49943;BME280;36011;53.362;58.948;2023-03-26T06:01:55;96627.00;;;26.79;22.34
49943;BME280;36011;53.362;58.948;2023-03-26T06:05:02;96621.38;;;26.74;22.69
49943;BME280;36011;53.362;58.948;2023-03-26T06:08:05;96622.19;;;28.38;20.84
49943;BME280;36011;53.362;58.948;2023-03-26T06:11:07;96609.53;;;29.39;19.66
49943;BME280;36011;53.362;58.948;2023-03-26T06:14:08;96616.81;;;30.42;18.55
49943;BME280;36011;53.362;58.948;2023-03-26T06:17:12;96615.31;;;31.47;18.21
49943;BME280;36011;53.362;58.948;2023-03-26T06:20:17;96604.16;;;33.03;16.59
49943;BME280;36011;53.362;58.948;2023-03-26T06:23:20;96600.44;;;32.76;15.87
49943;BME280;36011;53.362;58.948;2023-03-26T06:26:23;96604.00;;;32.31;16.07
49943;BME280;36011;53.362;58.948;2023-03-26T06:29:29;96593.19;;;32.07;16.23
49943;BME280;36011;53.362;58.948;2023-03-26T06:32:34;96600.66;;;32.29;16.29
49943;BME280;36011;53.362;58.948;2023-03-26T06:35:40;96601.78;;;33.24;15.90
49943;BME280;36011;53.362;58.948;2023-03-26T06:38:49;96610.59;;;35.33;14.49
49943;BME280;36011;53.362;58.948;2023-03-26T06:41:58;96605.63;;;36.35;13.18
49943;BME280;36011;53.362;58.948;2023-03-26T06:45:02;96608.72;;;35.86;13.92
49943;BME280;36011;53.362;58.948;2023-03-26T06:48:07;96597.66;;;35.18;14.13
49943;BME280;36011;53.362;58.948;2023-03-26T06:51:14;96600.81;;;35.84;13.68
49943;BME280;36011;53.362;58.948;2023-03-26T06:54:19;96595.84;;;36.90;13.01
49943;BME280;36011;53.362;58.948;2023-03-26T06:57:26;96594.75;;;37.27;12.30
49943;BME280;36011;53.362;58.948;2023-03-26T07:00:37;96603.22;;;37.51;12.07
49943;BME280;36011;53.362;58.948;2023-03-26T07:03:51;96590.09;;;36.71;12.46
49943;BME280;36011;53.362;58.948;2023-03-26T07:07:10;96591.34;;;36.23;12.81
49943;BME280;36011;53.362;58.948;2023-03-26T07:10:15;96589.44;;;36.28;12.87
49943;BME280;36011;53.362;58.948;2023-03-26T07:13:21;96595.75;;;36.34;12.46
49943;BME280;36011;53.362;58.948;2023-03-26T07:16:29;96593.34;;;37.40;12.46
49943;BME280;36011;53.362;58.948;2023-03-26T07:19:38;96590.72;;;38.00;12.09
49943;BME280;36011;53.362;58.948;2023-03-26T07:22:42;96572.16;;;37.71;11.65
49943;BME280;36011;53.362;58.948;2023-03-26T07:25:45;96587.28;;;38.28;11.85
49943;BME280;36011;53.362;58.948;2023-03-26T07:36:04;96584.53;;;37.63;11.64
49943;BME280;36011;53.362;58.948;2023-03-26T07:45:57;96570.09;;;36.60;12.08
49943;BME280;36011;53.362;58.948;2023-03-26T07:49:05;96573.28;;;36.22;12.61
49943;BME280;36011;53.362;58.948;2023-03-26T07:52:14;96569.88;;;35.89;12.75
49943;BME280;36011;53.362;58.948;2023-03-26T07:55:17;96552.72;;;35.51;12.96
49943;BME280;36011;53.362;58.948;2023-03-26T08:05:26;96572.28;;;33.82;14.13
49943;BME280;36011;53.362;58.948;2023-03-26T08:11:33;96567.03;;;33.36;14.36
49943;BME280;36011;53.362;58.948;2023-03-26T08:17:48;96560.00;;;33.01;14.75
49943;BME280;36011;53.362;58.948;2023-03-26T08:21:14;96564.09;;;33.21;14.82
49943;BME280;36011;53.362;58.948;2023-03-26T08:24:39;96559.22;;;32.55;15.09
49943;BME280;36011;53.362;58.948;2023-03-26T08:31:08;96568.31;;;33.50;14.61
49943;BME280;36011;53.362;58.948;2023-03-26T08:34:16;96551.53;;;32.52;14.97
49943;BME280;36011;53.362;58.948;2023-03-26T08:37:20;96551.84;;;33.84;14.41
49943;BME280;36011;53.362;58.948;2023-03-26T08:58:14;96550.97;;;35.29;13.29
49943;BME280;36011;53.362;58.948;2023-03-26T09:18:47;96538.31;;;33.12;15.25
49943;BME280;36011;53.362;58.948;2023-03-26T09:46:25;96568.63;;;39.81;11.05
49943;BME280;36011;53.362;58.948;2023-03-26T09:55:52;96545.94;;;34.79;13.79
49943;BME280;36011;53.362;58.948;2023-03-26T10:12:29;96555.75;;;31.10;16.81
49943;BME280;36011;53.362;58.948;2023-03-26T10:22:59;96544.69;;;30.34;17.55
49943;BME280;36011;53.362;58.948;2023-03-26T10:36:26;96551.16;;;27.72;20.37
49943;BME280;36011;53.362;58.948;2023-03-26T10:52:52;96561.56;;;30.90;17.29
49943;BME280;36011;53.362;58.948;2023-03-26T10:56:27;96561.56;;;29.76;18.63
49943;BME280;36011;53.362;58.948;2023-03-26T10:59:35;96548.94;;;28.64;19.31
49943;BME280;36011;53.362;58.948;2023-03-26T11:06:35;96546.72;;;27.40;20.66
49943;BME280;36011;53.362;58.948;2023-03-26T11:14:20;96524.22;;;26.34;21.87
49943;BME280;36011;53.362;58.948;2023-03-26T11:17:42;96525.94;;;25.61;22.73
49943;BME280;36011;53.362;58.948;2023-03-26T11:21:10;96532.19;;;25.20;22.97
49943;BME280;36011;53.362;58.948;2023-03-26T11:27:48;96531.22;;;25.34;23.21
49943;BME280;36011;53.362;58.948;2023-03-26T11:34:08;96546.66;;;25.67;22.90
49943;BME280;36011;53.362;58.948;2023-03-26T11:37:37;96559.06;;;25.54;23.19
49943;BME280;36011;53.362;58.948;2023-03-26T11:40:43;96555.38;;;24.86;23.85
49943;BME280;36011;53.362;58.948;2023-03-26T11:44:00;96563.06;;;24.61;24.24
49943;BME280;36011;53.362;58.948;2023-03-26T11:47:10;96569.91;;;24.42;24.32
49943;BME280;36011;53.362;58.948;2023-03-26T11:50:38;96555.56;;;24.13;25.05
49943;BME280;36011;53.362;58.948;2023-03-26T11:53:42;96560.34;;;23.60;25.58
49943;BME280;36011;53.362;58.948;2023-03-26T11:57:14;96562.56;;;22.53;26.74
49943;BME280;36011;53.362;58.948;2023-03-26T12:00:22;96556.13;;;21.30;28.94
49943;BME280;36011;53.362;58.948;2023-03-26T12:03:27;96566.03;;;20.58;29.80
49943;BME280;36011;53.362;58.948;2023-03-26T12:06:32;96572.38;;;20.32;30.29
49943;BME280;36011;53.362;58.948;2023-03-26T12:09:36;96576.06;;;20.31;30.15
49943;BME280;36011;53.362;58.948;2023-03-26T12:12:58;96562.16;;;20.85;29.53
49943;BME280;36011;53.362;58.948;2023-03-26T12:16:08;96560.38;;;20.45;30.07
49943;BME280;36011;53.362;58.948;2023-03-26T12:19:18;96565.38;;;19.82;31.12
49943;BME280;36011;53.362;58.948;2023-03-26T12:25:36;96568.06;;;20.56;30.20
49943;BME280;36011;53.362;58.948;2023-03-26T12:28:49;96562.72;;;20.56;30.16
49943;BME280;36011;53.362;58.948;2023-03-26T12:32:02;96555.34;;;19.92;31.16
49943;BME280;36011;53.362;58.948;2023-03-26T12:35:14;96559.94;;;19.07;32.61
49943;BME280;36011;53.362;58.948;2023-03-26T12:38:31;96556.91;;;18.24;34.33
49943;BME280;36011;53.362;58.948;2023-03-26T12:41:39;96562.75;;;17.10;36.43
49943;BME280;36011;53.362;58.948;2023-03-26T12:44:49;96572.03;;;16.30;38.00
49943;BME280;36011;53.362;58.948;2023-03-26T12:47:55;96570.47;;;15.40;39.87
49943;BME280;36011;53.362;58.948;2023-03-26T12:54:45;96579.00;;;14.93;40.77
49943;BME280;36011;53.362;58.948;2023-03-26T13:01:27;96593.78;;;14.65;42.12
49943;BME280;36011;53.362;58.948;2023-03-26T13:24:37;96599.88;;;14.03;43.99
49943;BME280;36011;53.362;58.948;2023-03-26T13:35:11;96607.66;;;13.83;44.60
49943;BME280;36011;53.362;58.948;2023-03-26T13:38:13;96611.25;;;13.93;44.92
49943;BME280;36011;53.362;58.948;2023-03-26T13:48:04;96598.91;;;13.83;45.23
49943;BME280;36011;53.362;58.948;2023-03-26T13:51:13;96601.56;;;13.72;45.69
49943;BME280;36011;53.362;58.948;2023-03-26T13:57:37;96606.63;;;13.31;46.93
49943;BME280;36011;53.362;58.948;2023-03-26T14:00:57;96605.53;;;13.22;47.21
49943;BME280;36011;53.362;58.948;2023-03-26T14:04:49;96601.06;;;13.23;47.64
49943;BME280;36011;53.362;58.948;2023-03-26T14:07:39;96609.50;;;13.06;47.99
49943;BME280;36011;53.362;58.948;2023-03-26T14:10:51;96607.69;;;12.95;48.42
49943;BME280;36011;53.362;58.948;2023-03-26T14:14:06;96621.22;;;12.68;48.96
49943;BME280;36011;53.362;58.948;2023-03-26T14:17:23;96611.97;;;12.40;49.63
49943;BME280;36011;53.362;58.948;2023-03-26T14:31:41;96618.19;;;11.92;51.25
49943;BME280;36011;53.362;58.948;2023-03-26T14:41:57;96632.69;;;11.74;51.87
49943;BME280;36011;53.362;58.948;2023-03-26T14:51:37;96647.22;;;11.55;52.48
49943;BME280;36011;53.362;58.948;2023-03-26T14:54:46;96653.06;;;11.35;52.70
49943;BME280;36011;53.362;58.948;2023-03-26T15:08:36;96678.31;;;10.62;54.45
49943;BME280;36011;53.362;58.948;2023-03-26T15:12:05;96679.22;;;10.36;54.64
49943;BME280;36011;53.362;58.948;2023-03-26T15:25:47;96689.50;;;9.44;55.26
49943;BME280;36011;53.362;58.948;2023-03-26T15:39:39;96676.63;;;8.98;56.92
49943;BME280;36011;53.362;58.948;2023-03-26T15:49:45;96687.50;;;9.07;57.68
49943;BME280;36011;53.362;58.948;2023-03-26T16:00:23;96695.28;;;9.64;57.40
49943;BME280;36011;53.362;58.948;2023-03-26T16:03:38;96704.13;;;9.63;57.44
49943;BME280;36011;53.362;58.948;2023-03-26T16:16:53;96730.59;;;9.03;57.41
49943;BME280;36011;53.362;58.948;2023-03-26T16:20:16;96724.56;;;8.58;58.00
49943;BME280;36011;53.362;58.948;2023-03-26T16:30:33;96728.63;;;7.87;59.07
49943;BME280;36011;53.362;58.948;2023-03-26T16:33:37;96730.50;;;7.53;59.26
49943;BME280;36011;53.362;58.948;2023-03-26T16:36:44;96732.59;;;7.31;60.66
49943;BME280;36011;53.362;58.948;2023-03-26T16:39:50;96727.69;;;7.25;60.66
49943;BME280;36011;53.362;58.948;2023-03-26T16:43:30;96722.78;;;7.34;61.37
49943;BME280;36011;53.362;58.948;2023-03-26T16:57:36;96715.28;;;7.76;61.17
49943;BME280;36011;53.362;58.948;2023-03-26T17:01:05;96696.31;;;7.86;61.25
49943;BME280;36011;53.362;58.948;2023-03-26T17:04:22;96704.94;;;8.04;61.29
49943;BME280;36011;53.362;58.948;2023-03-26T17:07:34;96700.31;;;8.24;61.22
49943;BME280;36011;53.362;58.948;2023-03-26T17:24:45;96709.75;;;8.42;61.58
49943;BME280;36011;53.362;58.948;2023-03-26T17:31:32;96712.66;;;8.22;61.68
49943;BME280;36011;53.362;58.948;2023-03-26T17:37:40;96722.44;;;8.04;62.06
49943;BME280;36011;53.362;58.948;2023-03-26T17:40:47;96732.31;;;7.99;62.33
49943;BME280;36011;53.362;58.948;2023-03-26T17:43:55;96732.34;;;7.83;62.35
49943;BME280;36011;53.362;58.948;2023-03-26T17:46:59;96726.44;;;7.63;62.53
49943;BME280;36011;53.362;58.948;2023-03-26T17:50:20;96733.84;;;7.55;62.76
49943;BME280;36011;53.362;58.948;2023-03-26T17:53:30;96730.75;;;7.64;62.86
49943;BME280;36011;53.362;58.948;2023-03-26T17:56:34;96724.91;;;7.59;62.96
49943;BME280;36011;53.362;58.948;2023-03-26T17:59:43;96718.56;;;7.63;62.74
49943;BME280;36011;53.362;58.948;2023-03-26T18:03:18;96730.16;;;7.59;62.83
49943;BME280;36011;53.362;58.948;2023-03-26T18:16:55;96737.06;;;7.60;63.06
49943;BME280;36011;53.362;58.948;2023-03-26T18:20:05;96732.75;;;7.75;62.67
49943;BME280;36011;53.362;58.948;2023-03-26T18:23:09;96732.69;;;7.77;63.00
49943;BME280;36011;53.362;58.948;2023-03-26T18:26:22;96737.09;;;7.76;62.74
49943;BME280;36011;53.362;58.948;2023-03-26T18:29:35;96736.56;;;7.54;63.24
49943;BME280;36011;53.362;58.948;2023-03-26T18:32:50;96733.75;;;7.41;63.62
49943;BME280;36011;53.362;58.948;2023-03-26T18:36:02;96729.22;;;7.29;63.85
49943;BME280;36011;53.362;58.948;2023-03-26T18:39:03;96731.78;;;7.13;64.09
49943;BME280;36011;53.362;58.948;2023-03-26T18:42:17;96731.44;;;7.03;64.20
49943;BME280;36011;53.362;58.948;2023-03-26T18:45:40;96729.38;;;6.92;64.17
49943;BME280;36011;53.362;58.948;2023-03-26T18:48:43;96732.72;;;6.79;64.40
49943;BME280;36011;53.362;58.948;2023-03-26T18:51:51;96733.88;;;6.73;64.38
49943;BME280;36011;53.362;58.948;2023-03-26T18:54:53;96742.16;;;6.65;64.37
49943;BME280;36011;53.362;58.948;2023-03-26T18:58:18;96741.72;;;6.73;65.10
49943;BME280;36011;53.362;58.948;2023-03-26T19:01:26;96741.81;;;6.71;64.22
49943;BME280;36011;53.362;58.948;2023-03-26T19:04:36;96751.00;;;6.96;64.66
49943;BME280;36011;53.362;58.948;2023-03-26T19:07:42;96751.22;;;7.09;64.13
49943;BME280;36011;53.362;58.948;2023-03-26T19:10:48;96751.38;;;7.06;63.89
49943;BME280;36011;53.362;58.948;2023-03-26T19:14:05;96749.97;;;6.83;64.10
49943;BME280;36011;53.362;58.948;2023-03-26T19:17:07;96741.69;;;6.57;64.44
49943;BME280;36011;53.362;58.948;2023-03-26T19:20:21;96747.06;;;6.37;64.93
49943;BME280;36011;53.362;58.948;2023-03-26T19:23:34;96749.34;;;6.25;64.69
49943;BME280;36011;53.362;58.948;2023-03-26T19:26:38;96751.56;;;5.98;65.01
49943;BME280;36011;53.362;58.948;2023-03-26T19:29:41;96760.09;;;5.83;65.59
49943;BME280;36011;53.362;58.948;2023-03-26T19:32:54;96743.09;;;5.74;65.89
49943;BME280;36011;53.362;58.948;2023-03-26T19:39:24;96751.03;;;5.54;66.43
49943;BME280;36011;53.362;58.948;2023-03-26T19:42:30;96750.75;;;5.60;66.46
49943;BME280;36011;53.362;58.948;2023-03-26T19:45:39;96754.13;;;5.43;67.23
49943;BME280;36011;53.362;58.948;2023-03-26T19:48:45;96757.03;;;5.37;67.33
49943;BME280;36011;53.362;58.948;2023-03-26T19:52:01;96752.44;;;5.23;67.65
49943;BME280;36011;53.362;58.948;2023-03-26T19:58:09;96744.25;;;5.12;68.04
49943;BME280;36011;53.362;58.948;2023-03-26T20:01:19;96747.94;;;5.08;68.08
49943;BME280;36011;53.362;58.948;2023-03-26T20:04:25;96743.13;;;4.99;68.48
49943;BME280;36011;53.362;58.948;2023-03-26T20:07:32;96748.06;;;5.05;68.64
49943;BME280;36011;53.362;58.948;2023-03-26T20:10:39;96744.63;;;5.23;68.40
49943;BME280;36011;53.362;58.948;2023-03-26T20:13:47;96745.81;;;5.35;68.72
49943;BME280;36011;53.362;58.948;2023-03-26T20:16:49;96750.19;;;5.34;68.42
49943;BME280;36011;53.362;58.948;2023-03-26T20:19:50;96750.75;;;5.22;68.74
49943;BME280;36011;53.362;58.948;2023-03-26T20:22:59;96747.72;;;5.31;68.79
49943;BME280;36011;53.362;58.948;2023-03-26T20:26:04;96760.97;;;5.08;69.19
49943;BME280;36011;53.362;58.948;2023-03-26T20:29:08;96750.59;;;5.06;69.50
49943;BME280;36011;53.362;58.948;2023-03-26T20:32:22;96759.28;;;5.07;69.62
49943;BME280;36011;53.362;58.948;2023-03-26T20:35:28;96760.75;;;4.93;69.82
49943;BME280;36011;53.362;58.948;2023-03-26T20:38:30;96754.94;;;4.87;69.91
49943;BME280;36011;53.362;58.948;2023-03-26T20:41:43;96752.84;;;4.95;69.73
49943;BME280;36011;53.362;58.948;2023-03-26T20:44:50;96756.56;;;4.89;70.07
49943;BME280;36011;53.362;58.948;2023-03-26T20:47:53;96753.25;;;4.86;70.13
49943;BME280;36011;53.362;58.948;2023-03-26T20:50:58;96752.38;;;5.06;70.03
49943;BME280;36011;53.362;58.948;2023-03-26T20:54:04;96756.78;;;5.04;70.11
49943;BME280;36011;53.362;58.948;2023-03-26T20:57:11;96744.25;;;5.12;69.69
49943;BME280;36011;53.362;58.948;2023-03-26T21:00:16;96755.25;;;5.00;69.84
49943;BME280;36011;53.362;58.948;2023-03-26T21:03:25;96749.63;;;5.09;70.04
49943;BME280;36011;53.362;58.948;2023-03-26T21:06:33;96749.38;;;4.94;69.83
49943;BME280;36011;53.362;58.948;2023-03-26T21:09:37;96760.66;;;4.95;70.21
49943;BME280;36011;53.362;58.948;2023-03-26T21:15:55;96754.09;;;4.86;70.13
49943;BME280;36011;53.362;58.948;2023-03-26T21:18:57;96753.94;;;4.89;70.06
49943;BME280;36011;53.362;58.948;2023-03-26T21:25:27;96753.34;;;4.64;70.92
49943;BME280;36011;53.362;58.948;2023-03-26T21:28:44;96753.03;;;4.51;71.05
49943;BME280;36011;53.362;58.948;2023-03-26T21:31:49;96738.38;;;4.48;70.98
49943;BME280;36011;53.362;58.948;2023-03-26T21:34:52;96757.19;;;4.55;71.37
49943;BME280;36011;53.362;58.948;2023-03-26T21:37:54;96754.06;;;4.47;71.51
49943;BME280;36011;53.362;58.948;2023-03-26T21:41:00;96753.88;;;4.52;71.54
49943;BME280;36011;53.362;58.948;2023-03-26T21:44:08;96754.84;;;4.49;71.63
49943;BME280;36011;53.362;58.948;2023-03-26T21:47:12;96757.31;;;4.32;71.76
49943;BME280;36011;53.362;58.948;2023-03-26T21:50:17;96765.66;;;4.40;71.99
49943;BME280;36011;53.362;58.948;2023-03-26T21:53:23;96759.47;;;4.42;72.01
49943;BME280;36011;53.362;58.948;2023-03-26T21:59:52;96751.50;;;4.66;72.26
49943;BME280;36011;53.362;58.948;2023-03-26T22:06:45;96747.53;;;4.57;72.69
49943;BME280;36011;53.362;58.948;2023-03-26T22:09:49;96747.09;;;4.47;73.15
49943;BME280;36011;53.362;58.948;2023-03-26T22:12:56;96742.19;;;4.60;72.95
49943;BME280;36011;53.362;58.948;2023-03-26T22:15:57;96743.31;;;4.55;73.31
49943;BME280;36011;53.362;58.948;2023-03-26T22:19:04;96736.16;;;4.39;73.30
49943;BME280;36011;53.362;58.948;2023-03-26T22:22:11;96739.66;;;4.38;73.71
49943;BME280;36011;53.362;58.948;2023-03-26T22:25:15;96735.63;;;4.31;74.17
49943;BME280;36011;53.362;58.948;2023-03-26T22:28:24;96729.38;;;4.15;74.77
49943;BME280;36011;53.362;58.948;2023-03-26T22:31:32;96724.22;;;4.13;75.24
49943;BME280;36011;53.362;58.948;2023-03-26T22:34:37;96728.44;;;4.16;75.21
49943;BME280;36011;53.362;58.948;2023-03-26T22:37:46;96725.41;;;4.26;75.20